createdAt,value
2023-04-07T00:04:24.122Z,19.05
2023-04-07T00:09:26.467Z,21.42
2023-04-07T00:14:28.896Z,14.73
2023-04-07T00:19:30.634Z,17.73
2023-04-07T00:24:34.650Z,16.80
2023-04-07T00:29:36.645Z,18.10
2023-04-07T00:34:38.399Z,17.40
2023-04-07T00:39:40.153Z,13.38
2023-04-07T00:44:41.977Z,14.68
2023-04-07T00:49:43.742Z,12.02
2023-04-07T00:54:46.959Z,14.38
2023-04-07T00:59:50.687Z,13.88
2023-04-07T01:05:05.583Z,19.20
2023-04-07T01:10:15.008Z,23.13
2023-04-07T01:15:30.511Z,15.93
2023-04-07T01:20:35.425Z,15.45
2023-04-07T01:26:18.070Z,14.25
2023-04-07T01:31:22.303Z,19.92
2023-04-07T01:36:28.674Z,22.27
2023-04-07T01:41:31.299Z,25.77
2023-04-07T01:46:33.084Z,16.42
2023-04-07T01:51:35.757Z,15.05
2023-04-07T01:56:37.541Z,17.17
2023-04-07T02:01:41.695Z,17.15
2023-04-07T02:06:53.172Z,13.82
2023-04-07T02:12:05.965Z,16.60
2023-04-07T02:17:11.891Z,21.83
2023-04-07T02:22:15.810Z,19.67
2023-04-07T02:27:17.618Z,16.27
2023-04-07T02:32:19.378Z,17.52
2023-04-07T02:37:21.110Z,16.67
2023-04-07T02:42:22.824Z,20.20
2023-04-07T02:47:25.485Z,36.30
2023-04-07T02:52:27.241Z,23.98
2023-04-07T02:57:29.134Z,21.05
2023-04-07T03:02:34.972Z,19.52
2023-04-07T03:07:37.044Z,19.65
2023-04-07T03:12:40.052Z,20.25
2023-04-07T03:17:41.936Z,19.45
2023-04-07T03:22:44.725Z,20.65
2023-04-07T03:27:53.196Z,18.83
2023-04-07T03:32:55.561Z,21.73
2023-04-07T03:37:57.399Z,27.90
2023-04-07T03:43:00.412Z,34.25
2023-04-07T03:48:02.371Z,27.08
2023-04-07T03:53:05.534Z,26.27
2023-04-07T03:58:07.397Z,23.45
2023-04-07T04:03:11.799Z,21.52
2023-04-07T04:08:23.956Z,24.85
2023-04-07T04:13:25.851Z,25.35
2023-04-07T04:18:29.135Z,28.23
2023-04-07T04:23:32.393Z,24.92
2023-04-07T04:28:34.974Z,24.85
2023-04-07T04:33:39.251Z,26.67
2023-04-07T04:38:41.125Z,26.42
2023-04-07T04:43:50.896Z,19.30
2023-04-07T04:48:58.041Z,25.75
2023-04-07T04:54:00.996Z,22.13
2023-04-07T04:59:04.459Z,20.67
2023-04-07T05:04:14.869Z,23.08
2023-04-07T05:09:22.786Z,22.33
2023-04-07T05:14:25.176Z,21.88
2023-04-07T05:19:37.620Z,30.13
2023-04-07T05:24:46.686Z,24.08
2023-04-07T05:29:48.557Z,22.98
2023-04-07T05:34:59.004Z,20.92
2023-04-07T05:40:06.305Z,24.88
2023-04-07T05:45:09.566Z,25.52
2023-04-07T05:50:15.399Z,21.73
2023-04-07T05:55:20.321Z,22.83
2023-04-07T06:00:22.704Z,19.35
2023-04-07T06:05:35.030Z,22.88
2023-04-07T06:10:37.192Z,20.20
2023-04-07T06:15:38.948Z,19.98
2023-04-07T06:20:40.922Z,18.42
2023-04-07T06:25:42.692Z,19.63
2023-04-07T06:30:44.666Z,21.75
2023-04-07T06:35:48.180Z,27.58
2023-04-07T06:40:49.972Z,26.35
2023-04-07T06:45:51.732Z,19.98
2023-04-07T06:50:53.527Z,20.02
2023-04-07T06:56:10.538Z,22.02
2023-04-07T07:01:12.382Z,18.50
2023-04-07T07:06:14.154Z,17.55
2023-04-07T07:11:16.140Z,17.30
2023-04-07T07:16:17.993Z,20.55
2023-04-07T07:21:19.833Z,17.13
2023-04-07T07:26:22.129Z,17.08
2023-04-07T07:31:24.335Z,15.80
2023-04-07T07:36:26.837Z,16.10
2023-04-07T07:41:28.606Z,14.88
2023-04-07T07:46:30.415Z,14.75
2023-04-07T07:51:32.251Z,16.85
2023-04-07T07:56:34.005Z,18.42
2023-04-07T08:01:35.951Z,18.60
2023-04-07T08:06:37.858Z,22.58
2023-04-07T08:11:39.651Z,22.35
2023-04-07T08:16:41.602Z,21.25
2023-04-07T08:21:43.723Z,21.38
2023-04-07T08:26:45.792Z,22.13
2023-04-07T08:31:47.563Z,20.08
2023-04-07T08:36:49.402Z,18.67
2023-04-07T08:41:51.542Z,18.02
2023-04-07T08:46:59.796Z,19.55
2023-04-07T08:52:07.930Z,17.15
2023-04-07T08:57:12.325Z,16.20
2023-04-07T09:02:15.785Z,15.48
2023-04-07T09:07:17.785Z,13.95
2023-04-07T09:12:19.548Z,14.95
2023-04-07T09:17:21.711Z,16.98
2023-04-07T09:22:43.133Z,16.17
2023-04-07T09:27:59.408Z,16.90
2023-04-07T09:33:02.323Z,16.35
2023-04-07T09:38:09.491Z,18.35
2023-04-07T09:43:19.176Z,17.67
2023-04-07T09:48:22.050Z,17.58
2023-04-07T09:53:48.767Z,14.25
2023-04-07T09:58:54.259Z,15.68
2023-04-07T10:03:56.601Z,15.73
2023-04-07T10:08:58.452Z,14.80
2023-04-07T10:14:00.223Z,16.80
2023-04-07T10:19:02.741Z,17.02
2023-04-07T10:24:09.403Z,15.85
2023-04-07T10:29:15.142Z,14.68
2023-04-07T10:34:17.090Z,12.90
2023-04-07T10:39:18.734Z,10.35
2023-04-07T10:44:40.993Z,13.23
2023-04-07T10:50:17.046Z,13.20
2023-04-07T10:55:33.784Z,11.70
2023-04-07T11:00:35.562Z,11.75
2023-04-07T11:05:38.907Z,9.38
2023-04-07T11:10:41.081Z,9.10
2023-04-07T11:15:42.838Z,10.40
2023-04-07T11:20:51.672Z,10.05
2023-04-07T11:26:02.071Z,13.15
2023-04-07T11:31:04.996Z,7.97
2023-04-07T11:36:07.459Z,10.43
2023-04-07T11:41:16.195Z,12.00
2023-04-07T11:46:19.130Z,8.95
2023-04-07T11:51:26.333Z,10.85
2023-04-07T11:56:28.318Z,10.15
2023-04-07T12:01:41.760Z,9.23
2023-04-07T12:06:44.870Z,10.02
2023-04-07T12:11:50.344Z,11.18
2023-04-07T12:16:53.309Z,10.13
2023-04-07T12:21:56.179Z,9.35
2023-04-07T12:26:58.269Z,9.10
2023-04-07T12:32:00.073Z,8.95
2023-04-07T12:37:02.128Z,6.95
2023-04-07T12:42:03.885Z,5.57
2023-04-07T12:47:05.912Z,3.20
2023-04-07T12:52:07.863Z,3.53
2023-04-07T12:57:10.181Z,2.97
2023-04-07T13:02:13.671Z,3.85
2023-04-07T13:07:16.040Z,2.90
2023-04-07T13:12:17.800Z,3.30
2023-04-07T13:17:19.603Z,3.40
2023-04-07T13:22:22.248Z,2.72
2023-04-07T13:27:26.156Z,3.80
2023-04-07T13:32:27.896Z,2.95
2023-04-07T13:37:29.674Z,2.63
2023-04-07T13:42:31.463Z,2.83
2023-04-07T13:47:34.613Z,2.00
2023-04-07T13:52:36.424Z,2.30
2023-04-07T13:57:38.372Z,2.10
2023-04-07T14:02:40.299Z,2.20
2023-04-07T14:07:42.119Z,3.22
2023-04-07T14:12:43.840Z,2.40
2023-04-07T14:17:45.637Z,2.35
2023-04-07T14:22:47.385Z,2.00
2023-04-07T14:27:49.177Z,1.50
2023-04-07T14:32:51.026Z,1.30
2023-04-07T14:37:52.877Z,1.38
2023-04-07T14:43:06.807Z,1.20
2023-04-07T14:48:09.425Z,1.27
2023-04-07T14:53:11.244Z,1.25
2023-04-07T14:58:13.027Z,1.17
2023-04-07T15:03:14.957Z,1.70
2023-04-07T15:08:16.870Z,1.60
2023-04-07T15:13:18.617Z,1.60
2023-04-07T15:18:20.406Z,1.20
2023-04-07T15:23:22.169Z,1.30
2023-04-07T15:28:24.520Z,1.30
2023-04-07T15:33:26.428Z,1.27
2023-04-07T15:38:29.276Z,1.25
2023-04-07T15:43:31.185Z,1.38
2023-04-07T15:48:32.965Z,1.17
2023-04-07T15:53:35.004Z,1.45
2023-04-07T15:58:36.744Z,1.45
2023-04-07T16:03:38.575Z,1.50
2023-04-07T16:08:40.432Z,1.40
2023-04-07T16:13:42.162Z,1.40
2023-04-07T16:18:43.970Z,1.58
2023-04-07T16:23:45.753Z,1.40
2023-04-07T16:28:47.772Z,1.60
2023-04-07T16:33:52.711Z,1.50
2023-04-07T16:38:54.479Z,1.52
2023-04-07T16:43:56.241Z,1.90
2023-04-07T16:48:58.057Z,1.77
2023-04-07T16:53:59.813Z,1.90
2023-04-07T16:59:03.783Z,2.25
2023-04-07T17:04:06.237Z,2.00
2023-04-07T17:09:08.124Z,1.80
2023-04-07T17:14:09.908Z,2.35
2023-04-07T17:19:11.710Z,3.30
2023-04-07T17:24:16.006Z,3.38
2023-04-07T17:29:18.251Z,3.53
2023-04-07T17:34:20.108Z,3.22
2023-04-07T17:39:22.226Z,3.17
2023-04-07T17:44:23.971Z,4.60
2023-04-07T17:49:26.645Z,4.90
2023-04-07T17:54:28.441Z,3.25
2023-04-07T17:59:30.330Z,3.63
2023-04-07T18:04:32.577Z,3.15
2023-04-07T18:09:34.620Z,3.75
2023-04-07T18:14:36.765Z,3.40
2023-04-07T18:19:38.548Z,3.65
2023-04-07T18:24:40.309Z,6.70
2023-04-07T18:29:42.174Z,9.02
2023-04-07T18:34:47.844Z,6.80
2023-04-07T18:39:49.729Z,5.70
2023-04-07T18:44:51.706Z,4.35
2023-04-07T18:49:53.908Z,5.68
2023-04-07T18:54:55.970Z,7.60
2023-04-07T18:59:58.550Z,10.10
2023-04-07T19:05:00.467Z,8.18
2023-04-07T19:10:02.254Z,12.88
2023-04-07T19:15:04.286Z,10.30
2023-04-07T19:20:08.291Z,8.82
2023-04-07T19:25:10.087Z,9.60
2023-04-07T19:30:12.348Z,10.73
2023-04-07T19:35:14.778Z,14.25
2023-04-07T19:40:16.626Z,18.63
2023-04-07T19:45:18.995Z,12.57
2023-04-07T19:50:20.799Z,12.95
2023-04-07T19:55:22.801Z,11.38
2023-04-07T20:00:24.651Z,12.45
2023-04-07T20:05:27.224Z,12.30
2023-04-07T20:10:29.535Z,13.23
2023-04-07T20:15:31.388Z,15.07
2023-04-07T20:20:33.227Z,11.80
2023-04-07T20:25:35.044Z,13.13
2023-04-07T20:30:37.091Z,14.23
2023-04-07T20:35:38.961Z,15.05
2023-04-07T20:40:40.918Z,14.20
2023-04-07T20:45:42.704Z,16.02
2023-04-07T20:50:44.812Z,16.75
2023-04-07T20:55:47.408Z,16.63
2023-04-07T21:00:56.120Z,16.48
2023-04-07T21:05:58.387Z,15.07
2023-04-07T21:11:00.139Z,17.85
2023-04-07T21:16:03.903Z,14.30
2023-04-07T21:21:08.246Z,15.95
2023-04-07T21:26:10.065Z,17.75
2023-04-07T21:31:20.010Z,16.58
2023-04-07T21:36:21.745Z,20.13
2023-04-07T21:41:23.500Z,15.82
2023-04-07T21:46:25.377Z,18.42
2023-04-07T21:51:27.704Z,17.85
2023-04-07T21:56:29.415Z,19.70
2023-04-07T22:01:31.265Z,15.85
2023-04-07T22:06:33.002Z,20.48
2023-04-07T22:11:34.760Z,17.83
2023-04-07T22:16:39.598Z,18.35
2023-04-07T22:21:41.486Z,17.13
2023-04-07T22:26:43.216Z,17.48
2023-04-07T22:31:45.040Z,20.20
2023-04-07T22:36:46.849Z,19.75
2023-04-07T22:41:48.572Z,19.13
2023-04-07T22:46:50.367Z,18.70
2023-04-07T22:51:52.266Z,19.33
2023-04-07T22:56:54.122Z,19.27
2023-04-07T23:01:57.680Z,21.98
2023-04-07T23:06:59.788Z,21.83
2023-04-07T23:12:01.908Z,22.15
2023-04-07T23:17:03.670Z,20.83
2023-04-07T23:22:05.434Z,21.05
2023-04-07T23:27:07.149Z,22.60
2023-04-07T23:32:09.007Z,21.30
2023-04-07T23:37:11.119Z,19.70
2023-04-07T23:42:14.737Z,21.90
2023-04-07T23:47:16.603Z,20.55
2023-04-07T23:52:21.464Z,20.00
2023-04-07T23:57:23.552Z,23.55
